Time;durP1;ratioP1;P1;durP2;ratioP2;P2;SDS_P1;SDS_P2;PMS_P1;PMS_P2;Temp;Humidity;BMP_temperature;BMP_pressure;BME280_temperature;BME280_humidity;BME280_pressure;Samples;Min_cycle;Max_cycle;Signal;HPM_P1;HPM_P2
2023/08/25 00:00:48;;;;;;;12.47;4.50;;;;;;;18.56;100.00;100373.28;5026331;28;20027;-71
2023/08/25 00:03:13;;;;;;;9.07;4.33;;;;;;;18.60;100.00;100371.00;5029677;28;20111;-71
2023/08/25 00:05:39;;;;;;;6.23;3.40;;;;;;;18.67;100.00;100373.63;5031078;28;20108;-71
2023/08/25 00:08:06;;;;;;;5.97;2.83;;;;;;;18.61;100.00;100377.22;5031465;28;20079;-71
2023/08/25 00:10:32;;;;;;;6.90;3.33;;;;;;;18.49;100.00;100386.06;5028048;28;20036;-71
2023/08/25 00:12:58;;;;;;;5.15;3.45;;;;;;;18.47;100.00;100393.59;5029049;28;20055;-71
2023/08/25 00:15:23;;;;;;;4.23;3.40;;;;;;;18.43;100.00;100403.19;5027361;28;20396;-71
2023/08/25 00:17:50;;;;;;;8.53;4.03;;;;;;;18.36;100.00;100391.63;5029733;28;20056;-71
2023/08/25 00:20:16;;;;;;;7.25;4.43;;;;;;;18.40;100.00;100403.59;5029008;28;20151;-71
2023/08/25 00:22:41;;;;;;;8.00;4.78;;;;;;;18.38;100.00;100394.94;5030694;28;20124;-71
2023/08/25 00:25:07;;;;;;;7.27;4.03;;;;;;;18.33;100.00;100395.59;5028841;28;20061;-71
2023/08/25 00:27:32;;;;;;;;;;;;;;;18.33;100.00;100398.28;5029088;28;20025;-71
2023/08/25 00:29:58;;;;;;;9.43;4.47;;;;;;;18.27;100.00;100384.84;5026639;28;19920;-71
2023/08/25 00:32:23;;;;;;;9.68;4.80;;;;;;;18.19;100.00;100371.59;5025616;28;20037;-71
2023/08/25 00:34:50;;;;;;;9.85;4.57;;;;;;;18.16;100.00;100369.34;5023749;28;20480;-71
2023/08/25 00:37:15;;;;;;;6.43;4.30;;;;;;;18.12;100.00;100353.59;5027590;28;20048;-71
2023/08/25 00:39:40;;;;;;;6.23;4.20;;;;;;;18.17;100.00;100352.06;5026783;28;20025;-71
2023/08/25 00:42:06;;;;;;;4.37;3.93;;;;;;;18.10;100.00;100349.47;5025586;28;20037;-71
2023/08/25 00:44:32;;;;;;;7.32;4.20;;;;;;;18.20;100.00;100354.34;5024656;28;20025;-71
2023/08/25 00:46:58;;;;;;;7.77;4.13;;;;;;;18.20;100.00;100332.75;5028183;28;20036;-71
2023/08/25 00:49:24;;;;;;;6.40;4.72;;;;;;;18.13;100.00;100332.78;5025151;28;20411;-71
2023/08/25 00:51:51;;;;;;;8.77;5.18;;;;;;;18.13;100.00;100340.91;5020679;28;20033;-71
2023/08/25 00:54:17;;;;;;;7.25;4.50;;;;;;;18.21;100.00;100350.59;5019267;28;20021;-71
2023/08/25 00:56:45;;;;;;;8.43;5.32;;;;;;;18.10;100.00;100342.16;5030404;28;20031;-71
2023/08/25 00:59:11;;;;;;;14.85;6.20;;;;;;;18.08;100.00;100344.25;5007461;28;20404;-71
2023/08/25 01:01:36;;;;;;;7.35;6.30;;;;;;;18.12;100.00;100337.38;5026551;28;20037;-71
2023/08/25 01:04:03;;;;;;;9.07;6.47;;;;;;;18.21;100.00;100340.59;5025127;28;21025;-71
2023/08/25 01:06:28;;;;;;;13.80;7.13;;;;;;;18.09;100.00;100329.69;5021001;28;20044;-71
2023/08/25 01:08:53;;;;;;;10.03;6.13;;;;;;;18.06;100.00;100321.22;5024827;28;20480;-71
2023/08/25 01:11:48;;;;;;;13.15;7.00;;;;;;;18.07;100.00;100322.88;5026133;28;20041;-71
2023/08/25 01:14:34;;;;;;;10.85;5.93;;;;;;;18.13;100.00;100320.09;5025535;28;20498;-71
2023/08/25 01:17:14;;;;;;;10.75;6.60;;;;;;;18.18;100.00;100315.91;5026141;28;20535;-71
2023/08/25 01:19:57;;;;;;;14.98;6.70;;;;;;;18.18;100.00;100307.81;5032191;28;20435;-71
2023/08/25 01:22:49;;;;;;;12.02;7.95;;;;;;;18.18;100.00;100299.72;5021808;28;20029;-71
2023/08/25 01:25:26;;;;;;;11.32;6.50;;;;;;;18.24;100.00;100301.50;5031259;28;20389;-71
2023/08/25 01:27:54;;;;;;;11.00;7.38;;;;;;;18.25;100.00;100311.28;5044090;28;20124;-71
2023/08/25 01:30:22;;;;;;;12.85;7.05;;;;;;;18.14;100.00;100304.72;5022294;28;20017;-71
2023/08/25 01:32:48;;;;;;;15.80;7.15;;;;;;;18.19;100.00;100314.84;5028031;28;20124;-71
2023/08/25 01:35:15;;;;;;;12.77;8.02;;;;;;;18.20;100.00;100303.03;5030265;28;20094;-71
2023/08/25 01:37:48;;;;;;;13.18;8.00;;;;;;;18.09;100.00;100308.09;5030264;28;20601;-71
2023/08/25 01:40:36;;;;;;;11.30;6.95;;;;;;;18.10;100.00;100307.06;5030797;28;20033;-71
2023/08/25 01:43:02;;;;;;;10.95;6.95;;;;;;;18.14;100.00;100308.28;5020276;28;20051;-71
2023/08/25 01:45:30;;;;;;;13.98;7.20;;;;;;;18.18;100.00;100311.34;5031120;28;20069;-71
2023/08/25 01:47:56;;;;;;;12.07;7.53;;;;;;;18.22;100.00;100314.44;5027404;28;20087;-71
2023/08/25 01:50:22;;;;;;;11.85;7.32;;;;;;;18.16;100.00;100307.22;5024063;28;20014;-71
2023/08/25 01:52:48;;;;;;;12.77;7.05;;;;;;;18.22;100.00;100304.44;5031660;28;20076;-71
2023/08/25 01:55:14;;;;;;;15.32;8.60;;;;;;;18.20;100.00;100294.91;5012019;28;20033;-71
2023/08/25 01:57:39;;;;;;;11.57;7.68;;;;;;;18.13;100.00;100289.56;5032090;28;20026;-71
2023/08/25 02:00:06;;;;;;;11.98;6.88;;;;;;;18.19;100.00;100286.00;5029614;28;20017;-71
2023/08/25 02:02:40;;;;;;;12.82;7.90;;;;;;;18.21;100.00;100269.53;5030404;28;20041;-71
2023/08/25 02:05:06;;;;;;;10.60;7.37;;;;;;;18.16;100.00;100266.69;5027801;28;20102;-71
2023/08/25 02:07:31;;;;;;;11.15;8.63;;;;;;;18.13;100.00;100262.56;5030002;28;20020;-71
2023/08/25 02:09:57;;;;;;;10.93;8.00;;;;;;;18.09;100.00;100251.38;5030014;28;20187;-71
2023/08/25 02:12:23;;;;;;;12.37;9.60;;;;;;;18.03;100.00;100244.19;5030197;28;20467;-71
2023/08/25 02:14:48;;;;;;;11.07;8.73;;;;;;;17.89;100.00;100239.97;5024251;28;20048;-71
2023/08/25 02:17:14;;;;;;;13.93;9.43;;;;;;;17.83;100.00;100260.56;5029204;28;20033;-71
2023/08/25 02:19:39;;;;;;;11.87;9.30;;;;;;;17.85;100.00;100254.94;5028878;28;20403;-71
2023/08/25 02:22:06;;;;;;;12.43;8.10;;;;;;;17.90;100.00;100271.31;5027509;28;20033;-71
2023/08/25 02:24:32;;;;;;;16.65;9.88;;;;;;;17.84;100.00;100264.94;5031306;28;20017;-71
2023/08/25 02:26:57;;;;;;;10.23;8.83;;;;;;;17.81;100.00;100261.84;5019996;28;20036;-71
2023/08/25 02:29:24;;;;;;;14.83;10.27;;;;;;;17.81;100.00;100264.53;5028836;28;20455;-71
2023/08/25 02:31:49;;;;;;;12.40;9.23;;;;;;;17.83;100.00;100259.75;5027087;28;20120;-71
2023/08/25 02:34:15;;;;;;;11.93;9.97;;;;;;;17.78;100.00;100252.28;5028615;28;20026;-71
2023/08/25 02:36:40;;;;;;;18.27;10.37;;;;;;;17.69;100.00;100248.19;5029780;28;20107;-71
2023/08/25 02:39:05;;;;;;;11.67;9.07;;;;;;;17.65;100.00;100250.53;5028486;28;20033;-71
2023/08/25 02:41:33;;;;;;;14.43;9.95;;;;;;;17.71;100.00;100257.72;5028710;28;20029;-71
2023/08/25 02:43:58;;;;;;;16.57;11.47;;;;;;;17.61;100.00;100252.00;5027708;28;20091;-71
2023/08/25 02:46:24;;;;;;;13.03;9.93;;;;;;;17.67;100.00;100263.78;5028309;28;20076;-71
2023/08/25 02:48:49;;;;;;;13.13;9.20;;;;;;;17.69;100.00;100262.53;5029289;28;20025;-71
2023/08/25 02:51:14;;;;;;;13.33;10.70;;;;;;;17.69;100.00;100256.28;5026788;28;20115;-71
2023/08/25 02:53:40;;;;;;;12.13;9.57;;;;;;;17.65;100.00;100255.06;5027821;28;20044;-71
2023/08/25 02:56:05;;;;;;;11.90;9.17;;;;;;;17.58;100.00;100244.34;5025387;28;20067;-71
2023/08/25 02:58:34;;;;;;;12.97;11.27;;;;;;;17.62;100.00;100245.56;5028329;28;20025;-71
2023/08/25 03:01:00;;;;;;;12.32;10.43;;;;;;;17.61;100.00;100245.78;5026751;28;20030;-71
2023/08/25 03:03:27;;;;;;;15.00;11.53;;;;;;;17.65;100.00;100245.13;5028094;28;20036;-71
2023/08/25 03:05:52;;;;;;;17.23;11.10;;;;;;;17.63;100.00;100244.53;5027621;28;20456;-71
2023/08/25 03:08:20;;;;;;;13.98;10.20;;;;;;;17.64;100.00;100240.75;5009233;28;20049;-71
2023/08/25 03:10:46;;;;;;;22.98;12.55;;;;;;;17.67;100.00;100234.09;5026192;28;20042;-71
2023/08/25 03:13:11;;;;;;;20.07;12.83;;;;;;;17.64;100.00;100232.66;5027631;28;20121;-71
2023/08/25 03:15:36;;;;;;;19.47;12.20;;;;;;;17.67;100.00;100237.59;5028263;28;20033;-71
2023/08/25 03:18:02;;;;;;;18.73;12.20;;;;;;;17.75;100.00;100243.78;5027786;28;20126;-71
2023/08/25 03:20:28;;;;;;;15.68;12.45;;;;;;;17.77;100.00;100238.97;5020907;28;20030;-71
2023/08/25 03:22:54;;;;;;;17.48;13.73;;;;;;;17.79;100.00;100237.72;5027066;28;20021;-71
2023/08/25 03:25:20;;;;;;;18.90;14.07;;;;;;;17.77;100.00;100230.88;5026396;28;20029;-71
2023/08/25 03:27:46;;;;;;;17.33;14.93;;;;;;;17.79;100.00;100242.28;5025088;28;20713;-71
2023/08/25 03:30:12;;;;;;;17.73;15.07;;;;;;;17.83;100.00;100244.34;5026162;28;20029;-71
2023/08/25 03:32:37;;;;;;;21.92;16.08;;;;;;;17.83;100.00;100240.84;5025689;28;20754;-71
2023/08/25 03:35:03;;;;;;;22.17;16.10;;;;;;;17.79;100.00;100234.19;5008536;28;20029;-71
2023/08/25 03:37:29;;;;;;;25.13;16.02;;;;;;;17.80;100.00;100238.56;5025965;28;20038;-71
2023/08/25 03:39:55;;;;;;;16.98;14.50;;;;;;;17.87;100.00;100236.66;5024481;28;20156;-71
2023/08/25 03:42:20;;;;;;;18.08;16.05;;;;;;;17.87;100.00;100240.16;5019266;28;20056;-71
2023/08/25 03:44:47;;;;;;;19.47;16.20;;;;;;;17.88;100.00;100239.09;5021394;28;20037;-71
2023/08/25 03:47:13;;;;;;;24.75;18.33;;;;;;;17.90;100.00;100244.31;5010219;28;20072;-71
2023/08/25 03:49:38;;;;;;;22.20;16.63;;;;;;;17.85;100.00;100244.16;5010937;28;20081;-71
2023/08/25 03:52:06;;;;;;;23.07;17.07;;;;;;;17.89;100.00;100240.78;5009754;28;20033;-71
2023/08/25 03:54:32;;;;;;;22.33;18.08;;;;;;;17.96;100.00;100234.47;5026222;28;20078;-71
2023/08/25 03:56:58;;;;;;;29.60;17.87;;;;;;;17.93;100.00;100241.13;5027054;28;20055;-71
2023/08/25 03:59:23;;;;;;;;;;;;;;;17.97;100.00;100234.25;5028766;28;20033;-71
2023/08/25 04:01:49;;;;;;;24.27;19.00;;;;;;;17.93;100.00;100230.34;5028734;28;20387;-71
2023/08/25 04:04:14;;;;;;;21.73;18.00;;;;;;;17.96;100.00;100240.72;5025980;28;20029;-71
2023/08/25 04:06:41;;;;;;;22.67;19.23;;;;;;;17.94;100.00;100226.59;5030235;28;20036;-71
2023/08/25 04:09:08;;;;;;;25.73;19.55;;;;;;;17.91;100.00;100224.34;5025993;28;20044;-71
2023/08/25 04:11:35;;;;;;;30.40;21.20;;;;;;;17.86;100.00;100229.59;5025068;28;20040;-71
2023/08/25 04:14:01;;;;;;;29.17;22.02;;;;;;;17.85;100.00;100227.94;5023918;28;20033;-70
2023/08/25 04:16:26;;;;;;;27.93;19.87;;;;;;;17.90;100.00;100236.19;5024588;28;20029;-71
2023/08/25 04:18:51;;;;;;;26.60;21.13;;;;;;;17.90;100.00;100239.72;5020351;28;20125;-71
2023/08/25 04:21:17;;;;;;;25.77;20.03;;;;;;;17.96;100.00;100229.06;5023137;28;20519;-71
2023/08/25 04:23:42;;;;;;;26.90;21.17;;;;;;;17.87;100.00;100220.44;5025251;28;20557;-71
2023/08/25 04:26:07;;;;;;;27.57;23.50;;;;;;;17.92;100.00;100228.69;5023835;28;20119;-71
2023/08/25 04:28:33;;;;;;;25.43;20.23;;;;;;;17.99;100.00;100229.47;5023637;28;20040;-71
2023/08/25 04:30:58;;;;;;;29.07;22.83;;;;;;;17.95;100.00;100219.31;5023554;28;20025;-71
2023/08/25 04:33:31;;;;;;;31.75;23.67;;;;;;;17.95;100.00;100217.44;5024548;28;20558;-71
2023/08/25 04:35:58;;;;;;;31.33;25.00;;;;;;;17.90;100.00;100217.28;5022136;28;20037;-71
2023/08/25 04:38:23;;;;;;;35.80;23.43;;;;;;;17.99;100.00;100215.94;5023845;28;20503;-71
2023/08/25 04:40:50;;;;;;;35.95;25.08;;;;;;;18.00;100.00;100220.28;5023255;28;20029;-71
2023/08/25 04:43:16;;;;;;;;;;;;;;;18.04;100.00;100229.59;5023985;28;20037;-71
2023/08/25 04:45:42;;;;;;;38.40;25.33;;;;;;;18.06;100.00;100224.81;5023418;28;20407;-70
2023/08/25 04:48:08;;;;;;;36.08;26.73;;;;;;;18.06;100.00;100234.78;5013144;28;20033;-71
2023/08/25 04:50:36;;;;;;;36.10;26.08;;;;;;;18.10;100.00;100236.00;5012515;28;20030;-71
2023/08/25 04:53:02;;;;;;;39.67;27.07;;;;;;;18.17;100.00;100236.75;5023346;28;20026;-71
2023/08/25 04:55:28;;;;;;;39.35;29.55;;;;;;;18.17;100.00;100239.47;5024270;28;20040;-71
2023/08/25 04:57:55;;;;;;;39.58;29.33;;;;;;;18.29;100.00;100234.13;5023956;28;20404;-71
2023/08/25 05:00:21;;;;;;;41.25;27.08;;;;;;;18.27;100.00;100230.81;5018476;28;20108;-71
2023/08/25 05:02:48;;;;;;;;;;;;;;;18.39;100.00;100241.69;5023502;28;20538;-71
2023/08/25 05:05:17;;;;;;;44.00;30.60;;;;;;;18.38;100.00;100238.19;5024078;28;19917;-71
2023/08/25 05:07:43;;;;;;;37.42;27.58;;;;;;;18.30;100.00;100233.88;5023995;28;20040;-71
2023/08/25 05:10:09;;;;;;;36.13;28.87;;;;;;;18.41;100.00;100237.72;5024070;28;20022;-71
2023/08/25 05:12:38;;;;;;;48.85;33.13;;;;;;;18.33;100.00;100235.31;5017743;28;20327;-71
2023/08/25 05:15:04;;;;;;;43.13;32.78;;;;;;;18.29;100.00;100245.75;5021069;28;20045;-71
2023/08/25 05:17:29;;;;;;;50.97;33.05;;;;;;;18.37;100.00;100251.91;5023030;28;20022;-71
2023/08/25 05:19:55;;;;;;;47.57;31.00;;;;;;;18.52;100.00;100250.47;5018171;28;20029;-71
2023/08/25 05:22:21;;;;;;;44.95;32.60;;;;;;;18.46;100.00;100245.16;5023217;28;20488;-71
2023/08/25 05:24:46;;;;;;;44.85;32.22;;;;;;;18.44;100.00;100242.66;5007979;28;20048;-71
2023/08/25 05:27:11;;;;;;;48.23;34.27;;;;;;;18.42;100.00;100249.34;5023222;28;20021;-71
2023/08/25 05:29:37;;;;;;;53.50;35.67;;;;;;;18.44;100.00;100241.84;5017315;28;20034;-71
2023/08/25 05:32:17;;;;;;;50.95;35.30;;;;;;;18.50;100.00;100251.75;5023262;28;20063;-71
2023/08/25 05:35:06;;;;;;;52.30;36.88;;;;;;;18.65;100.00;100249.47;5013123;28;20069;-71
2023/08/25 05:37:34;;;;;;;50.30;37.22;;;;;;;18.74;100.00;100253.50;5023229;28;20034;-71
2023/08/25 05:39:59;;;;;;;;;;;;;;;18.98;100.00;100240.09;5022853;28;20472;-71
2023/08/25 05:42:31;;;;;;;53.00;34.83;;;;;;;19.06;100.00;100231.69;5022955;28;19967;-71
2023/08/25 05:44:57;;;;;;;48.80;35.13;;;;;;;18.96;100.00;100229.53;5006603;28;20143;-71
2023/08/25 05:47:23;;;;;;;48.53;36.23;;;;;;;19.07;100.00;100229.78;5024462;28;20044;-71
2023/08/25 05:49:48;;;;;;;51.63;36.75;;;;;;;19.05;100.00;100237.31;5024515;28;20346;-71
2023/08/25 05:52:14;;;;;;;56.78;38.53;;;;;;;19.02;100.00;100240.50;5039238;23;20073;-73
2023/08/25 05:54:41;;;;;;;53.15;37.65;;;;;;;19.14;100.00;100225.09;5006303;28;20036;-72
2023/08/25 05:57:08;;;;;;;53.67;38.67;;;;;;;19.29;100.00;100221.94;4990183;28;20383;-73
2023/08/25 05:59:33;;;;;;;;;;;;;;;19.34;100.00;100225.63;5006616;28;20487;-74
2023/08/25 06:01:58;;;;;;;53.95;40.88;;;;;;;19.39;100.00;100233.88;5024127;28;19917;-73
2023/08/25 06:04:23;;;;;;;54.23;36.50;;;;;;;19.36;100.00;100237.06;5011710;28;20059;-73
2023/08/25 06:06:49;;;;;;;57.10;39.97;;;;;;;19.28;100.00;100229.25;5021740;28;20059;-73
2023/08/25 06:09:17;;;;;;;52.50;38.23;;;;;;;19.34;100.00;100235.63;5012919;28;20494;-73
2023/08/25 06:11:43;;;;;;;50.53;38.10;;;;;;;19.40;100.00;100240.09;4995889;28;20468;-75
2023/08/25 06:14:09;;;;;;;56.63;39.75;;;;;;;19.37;100.00;100235.97;5013161;28;20036;-73
2023/08/25 06:16:39;;;;;;;64.57;44.67;;;;;;;19.45;100.00;100252.94;5014219;28;20022;-73
2023/08/25 06:19:06;;;;;;;53.53;39.13;;;;;;;19.43;100.00;100244.22;5015919;28;20515;-73
2023/08/25 06:21:31;;;;;;;59.65;42.38;;;;;;;19.45;100.00;100250.22;5012617;28;20018;-73
2023/08/25 06:23:57;;;;;;;62.35;41.03;;;;;;;19.45;100.00;100263.75;4998719;28;20043;-73
2023/08/25 06:26:22;;;;;;;55.43;41.47;;;;;;;19.37;100.00;100251.41;5013497;28;20395;-74
2023/08/25 06:28:49;;;;;;;63.77;40.47;;;;;;;19.48;100.00;100252.47;5013529;28;20412;-75
2023/08/25 06:31:16;;;;;;;53.17;38.55;;;;;;;19.57;100.00;100262.75;5013261;28;20152;-74
2023/08/25 06:33:45;;;;;;;56.35;37.83;;;;;;;19.54;100.00;100257.78;4995591;28;20430;-73
2023/08/25 06:36:11;;;;;;;69.00;44.83;;;;;;;19.36;100.00;100260.56;5013779;28;20033;-75
2023/08/25 06:38:36;;;;;;;64.20;47.85;;;;;;;19.35;100.00;100272.47;5018454;28;20021;-75
2023/08/25 06:41:03;;;;;;;70.55;48.10;;;;;;;19.41;100.00;100274.25;5009693;28;20044;-72
2023/08/25 06:43:28;;;;;;;53.75;38.90;;;;;;;19.69;100.00;100276.31;5025697;28;20036;-73
2023/08/25 06:45:54;;;;;;;64.95;46.20;;;;;;;19.75;100.00;100264.53;5015756;28;20033;-73
2023/08/25 06:48:19;;;;;;;71.43;49.07;;;;;;;19.67;100.00;100248.63;5015556;28;20028;-73
2023/08/25 06:50:45;;;;;;;65.43;46.77;;;;;;;19.97;100.00;100253.94;5011012;28;20516;-75
2023/08/25 06:53:10;;;;;;;78.97;51.07;;;;;;;20.03;100.00;100249.47;5021510;28;20056;-73
2023/08/25 06:55:35;;;;;;;67.77;46.70;;;;;;;20.14;100.00;100245.91;5043516;28;20079;-73
2023/08/25 06:58:02;;;;;;;65.43;46.53;;;;;;;20.23;100.00;100238.25;5034511;28;20025;-75
2023/08/25 07:00:28;;;;;;;64.18;47.53;;;;;;;20.51;100.00;100226.63;5009176;28;20268;-76
2023/08/25 07:02:53;;;;;;;56.42;45.10;;;;;;;20.95;100.00;100234.25;4998638;28;20108;-74
2023/08/25 07:05:19;;;;;;;61.23;43.87;;;;;;;20.94;100.00;100210.91;5028064;28;20112;-73
2023/08/25 07:07:44;;;;;;;54.67;43.03;;;;;;;21.11;100.00;100208.22;5027170;28;20037;-73
2023/08/25 07:10:13;;;;;;;58.60;40.80;;;;;;;21.91;100.00;100207.88;5027263;28;20030;-73
2023/08/25 07:12:39;;;;;;;54.55;40.30;;;;;;;22.32;100.00;100145.06;5008523;28;20052;-74
2023/08/25 07:15:07;;;;;;;52.53;41.58;;;;;;;22.25;100.00;100103.66;5006633;28;20183;-73
2023/08/25 07:17:33;;;;;;;52.00;39.28;;;;;;;22.50;100.00;100092.22;5009988;28;20033;-76
2023/08/25 07:19:58;;;;;;;59.35;41.38;;;;;;;22.59;100.00;100068.91;5013764;28;20032;-74
2023/08/25 07:22:24;;;;;;;58.67;41.30;;;;;;;22.28;100.00;100046.88;5011032;28;20029;-74
2023/08/25 07:24:50;;;;;;;52.30;40.70;;;;;;;22.26;100.00;100038.13;4994975;28;20041;-75
2023/08/25 07:27:16;;;;;;;61.88;44.75;;;;;;;22.07;100.00;100061.28;5011456;28;20273;-74
2023/08/25 07:29:42;;;;;;;;;;;;;;;21.67;100.00;100095.06;5010574;28;20053;-74
2023/08/25 07:32:08;;;;;;;57.15;42.03;;;;;;;21.28;100.00;100124.88;5012492;28;20299;-74
2023/08/25 07:34:33;;;;;;;59.53;45.47;;;;;;;21.01;100.00;100177.13;5010755;28;20038;-73
2023/08/25 07:36:58;;;;;;;64.23;48.33;;;;;;;21.00;100.00;100188.22;5011825;28;20032;-74
2023/08/25 07:39:24;;;;;;;67.37;47.27;;;;;;;20.91;100.00;100201.38;4977121;28;20496;-74
2023/08/25 07:41:49;;;;;;;69.90;49.40;;;;;;;20.80;100.00;100213.09;5011612;28;20038;-73
2023/08/25 07:44:14;;;;;;;68.77;49.63;;;;;;;20.76;100.00;100230.91;5011029;28;20318;-73
2023/08/25 07:46:40;;;;;;;66.33;49.23;;;;;;;20.70;100.00;100245.44;4993052;28;20133;-74
2023/08/25 07:49:07;;;;;;;62.20;49.07;;;;;;;20.79;100.00;100247.53;5013841;28;20391;-74
2023/08/25 07:51:32;;;;;;;74.35;52.75;;;;;;;20.71;100.00;100238.97;5025313;28;20021;-74
2023/08/25 07:53:57;;;;;;;76.07;50.30;;;;;;;20.82;100.00;100259.81;5027350;28;20121;-74
2023/08/25 07:56:23;;;;;;;66.70;49.30;;;;;;;20.85;100.00;100264.72;4993601;28;20117;-74
2023/08/25 07:58:48;;;;;;;64.33;46.63;;;;;;;21.00;100.00;100253.34;5027169;28;20030;-74
2023/08/25 08:01:14;;;;;;;68.00;50.60;;;;;;;21.02;100.00;100254.75;5026004;28;20487;-74
2023/08/25 08:03:39;;;;;;;57.97;44.22;;;;;;;21.15;100.00;100250.91;5025254;28;20535;-74
2023/08/25 08:06:05;;;;;;;52.90;41.10;;;;;;;21.33;100.00;100252.59;5025545;28;20018;-74
2023/08/25 08:08:30;;;;;;;74.93;47.57;;;;;;;21.26;100.00;100227.50;5025236;28;20037;-74
2023/08/25 08:10:55;;;;;;;66.53;47.97;;;;;;;21.40;100.00;100249.72;5011325;28;20400;-75
2023/08/25 08:13:21;;;;;;;57.30;44.20;;;;;;;21.48;100.00;100238.47;5027225;28;20052;-74
2023/08/25 08:15:47;;;;;;;63.03;47.33;;;;;;;21.75;100.00;100235.91;5010126;28;20501;-74
2023/08/25 08:18:12;;;;;;;65.53;45.88;;;;;;;21.98;100.00;100188.66;5030354;28;20048;-74
2023/08/25 08:20:42;;;;;;;56.97;42.93;;;;;;;22.43;100.00;100165.03;5028358;28;20495;-74
2023/08/25 08:23:07;;;;;;;58.33;43.33;;;;;;;22.51;100.00;100140.09;5003793;28;20905;-74
2023/08/25 08:25:36;;;;;;;53.17;39.87;;;;;;;23.04;100.00;100105.78;5038280;28;20100;-74
2023/08/25 08:28:01;;;;;;;54.85;41.00;;;;;;;23.14;100.00;100081.34;5026830;28;20052;-74
2023/08/25 08:30:26;;;;;;;63.97;44.67;;;;;;;22.66;100.00;99998.78;5040190;28;20853;-75
2023/08/25 08:32:52;;;;;;;58.07;44.83;;;;;;;21.92;100.00;100053.81;5044954;28;20037;-74
2023/08/25 08:35:18;;;;;;;61.00;45.93;;;;;;;22.14;100.00;100105.41;5027656;28;20031;-74
2023/08/25 08:37:43;;;;;;;64.32;44.63;;;;;;;22.12;100.00;100140.19;5027383;28;20056;-75
2023/08/25 08:40:09;;;;;;;59.63;43.33;;;;;;;21.93;100.00;100177.72;5027805;28;20484;-74
2023/08/25 08:42:37;;;;;;;58.15;44.30;;;;;;;21.87;100.00;100182.28;5026998;28;20358;-74
2023/08/25 08:45:08;;;;;;;59.88;45.65;;;;;;;21.66;100.00;100145.84;5045076;28;20031;-75
2023/08/25 08:47:37;;;;;;;61.13;43.05;;;;;;;22.03;100.00;100202.34;5027565;28;20087;-75
2023/08/25 08:50:06;;;;;;;53.17;38.72;;;;;;;21.98;100.00;100142.44;5015880;28;20067;-75
2023/08/25 08:52:31;;;;;;;49.72;36.60;;;;;;;22.35;100.00;100166.31;5014081;28;20032;-74
2023/08/25 08:54:58;;;;;;;57.22;38.75;;;;;;;22.25;100.00;100093.59;5027158;28;20912;-74
2023/08/25 08:57:28;;;;;;;46.70;34.65;;;;;;;22.08;100.00;100084.69;5027395;28;20040;-75
2023/08/25 08:59:58;;;;;;;50.25;37.88;;;;;;;22.02;100.00;100085.72;5027171;28;20547;-74
2023/08/25 09:02:27;;;;;;;38.67;30.27;;;;;;;22.29;100.00;100123.84;5044640;28;20491;-74
2023/08/25 09:04:57;;;;;;;42.38;33.90;;;;;;;22.42;100.00;100089.97;5018227;28;20048;-74
2023/08/25 09:07:26;;;;;;;40.75;29.50;;;;;;;22.47;100.00;100057.38;5045158;28;20551;-75
2023/08/25 09:09:52;;;;;;;39.42;31.27;;;;;;;22.30;100.00;100052.88;5017357;28;20033;-75
2023/08/25 09:12:19;;;;;;;37.40;28.90;;;;;;;22.40;100.00;100073.91;5003727;28;20036;-75
2023/08/25 09:14:45;;;;;;;38.08;30.73;;;;;;;22.57;100.00;100015.84;5044622;28;20032;-75
2023/08/25 09:17:14;;;;;;;42.92;30.88;;;;;;;22.37;100.00;99946.63;5027126;28;20045;-75
2023/08/25 09:19:39;;;;;;;36.95;29.27;;;;;;;22.96;100.00;100024.56;5019220;28;20029;-74
2023/08/25 09:22:10;;;;;;;35.97;27.17;;;;;;;23.80;100.00;99849.25;5014995;28;20040;-75
2023/08/25 09:24:37;;;;;;;38.03;28.25;;;;;;;23.90;100.00;99689.53;5007346;28;20030;-75
2023/08/25 09:27:02;;;;;;;28.15;23.80;;;;;;;23.44;100.00;99736.72;5015598;28;20488;-75
2023/08/25 09:29:42;;;;;;;27.27;24.33;;;;;;;24.26;100.00;99664.91;5015543;28;20071;-75
2023/08/25 09:32:13;;;;;;;33.38;24.33;;;;;;;25.00;100.00;99641.28;5007217;28;20041;-75
2023/08/25 09:34:39;;;;;;;31.73;23.95;;;;;;;25.23;100.00;99482.16;5040936;28;20029;-75
2023/08/25 09:37:04;;;;;;;28.07;23.30;;;;;;;25.20;100.00;99272.47;5044863;28;20100;-75
2023/08/25 09:39:41;;;;;;;24.77;21.60;;;;;;;25.32;100.00;99276.66;5022416;28;20415;-75
2023/08/25 09:42:07;;;;;;;23.75;20.75;;;;;;;25.46;100.00;99330.25;5031925;28;20032;-75
2023/08/25 09:44:33;;;;;;;22.63;18.45;;;;;;;26.00;100.00;99458.53;5048459;28;20032;-75
2023/08/25 09:46:58;;;;;;;21.97;19.00;;;;;;;26.86;100.00;99367.88;5020267;28;20041;-75
2023/08/25 09:49:24;;;;;;;25.58;21.05;;;;;;;27.07;100.00;99040.44;5012613;28;20275;-75
2023/08/25 09:51:51;;;;;;;28.73;22.05;;;;;;;26.07;100.00;98893.72;5010154;28;20069;-75
2023/08/25 09:54:18;;;;;;;27.30;21.50;;;;;;;27.09;100.00;99125.00;5018782;28;20069;-75
2023/08/25 09:56:46;;;;;;;26.75;21.20;;;;;;;27.20;100.00;98884.53;5028152;28;20029;-75
2023/08/25 09:59:14;;;;;;;21.20;18.65;;;;;;;27.07;100.00;98995.81;5010763;28;20041;-75
2023/08/25 10:01:44;;;;;;;19.92;17.08;;;;;;;26.53;100.00;99080.59;5001446;28;20108;-75
2023/08/25 10:04:10;;;;;;;25.58;19.63;;;;;;;26.22;100.00;99168.81;5047907;28;20036;-75
2023/08/25 10:06:37;;;;;;;;;;;;;;;26.13;100.00;99206.19;5029736;28;20035;-75
2023/08/25 10:09:03;;;;;;;25.20;20.20;;;;;;;25.97;100.00;99319.69;5047290;28;20324;-75
2023/08/25 10:11:35;;;;;;;27.92;21.45;;;;;;;25.77;100.00;99337.19;5047673;28;20037;-75
2023/08/25 10:14:04;;;;;;;30.55;23.00;;;;;;;25.73;100.00;99396.28;5021848;28;20036;-75
2023/08/25 10:16:33;;;;;;;29.63;22.42;;;;;;;25.02;100.00;99530.66;5030052;28;20033;-74
2023/08/25 10:19:01;;;;;;;24.08;20.88;;;;;;;25.35;100.00;99716.66;5029344;28;20040;-74
2023/08/25 10:21:30;;;;;;;21.88;17.13;;;;;;;25.15;100.00;99697.69;5035871;28;20105;-75
2023/08/25 10:24:00;;;;;;;28.13;21.38;;;;;;;25.19;100.00;99565.78;5028034;28;20037;-75
2023/08/25 10:26:26;;;;;;;28.30;23.77;;;;;;;24.72;100.00;99728.25;5047550;28;20543;-74
2023/08/25 10:28:53;;;;;;;22.77;19.63;;;;;;;24.52;100.00;99838.31;5039299;28;20089;-75
2023/08/25 10:31:19;;;;;;;22.40;19.83;;;;;;;24.71;100.00;99818.63;5042594;28;20060;-75
2023/08/25 10:33:53;;;;;;;22.30;19.10;;;;;;;24.89;100.00;99954.50;5035894;28;20037;-75
2023/08/25 10:36:21;;;;;;;24.48;19.35;;;;;;;24.65;100.00;99891.47;5039078;28;20503;-75
2023/08/25 10:39:07;;;;;;;26.10;17.70;;;;;;;24.11;100.00;99927.50;5038447;28;20049;-75
2023/08/25 10:41:41;;;;;;;26.17;19.15;;;;;;;23.66;100.00;99814.63;5041962;28;20546;-74
2023/08/25 10:44:10;;;;;;;27.45;20.30;;;;;;;23.72;100.00;99765.31;5007448;28;20701;-74
2023/08/25 10:46:37;;;;;;;25.75;18.80;;;;;;;24.02;100.00;99921.78;4993257;28;20017;-75
2023/08/25 10:49:06;;;;;;;18.88;15.55;;;;;;;24.41;100.00;99959.41;5016848;28;20040;-74
2023/08/25 10:51:33;;;;;;;20.77;13.05;;;;;;;24.72;100.00;99979.34;5007288;28;20401;-75
2023/08/25 10:53:59;;;;;;;22.40;17.02;;;;;;;24.70;100.00;99921.50;4994158;28;20632;-75
2023/08/25 10:56:26;;;;;;;22.30;18.48;;;;;;;24.53;100.00;99822.75;5009024;28;20396;-74
2023/08/25 10:58:57;;;;;;;21.67;15.70;;;;;;;24.36;100.00;99793.84;5007796;28;20030;-75
2023/08/25 11:01:37;;;;;;;19.40;17.05;;;;;;;24.69;100.00;99682.44;5020087;28;20451;-75
2023/08/25 11:04:20;;;;;;;23.63;18.00;;;;;;;24.62;100.00;99698.28;5028696;28;20029;-75
2023/08/25 11:06:54;;;;;;;28.42;17.35;;;;;;;24.74;100.00;99802.47;5026193;28;20037;-75